Time;durP1;ratioP1;P1;durP2;ratioP2;P2;SDS_P1;SDS_P2;PMS_P1;PMS_P2;Temp;Humidity;BMP_temperature;BMP_pressure;BME280_temperature;BME280_humidity;BME280_pressure;Samples;Min_cycle;Max_cycle;Signal;HPM_P1;HPM_P2
2023/07/10 00:01:13;;;;;;;45.08;13.00;;;;;;;;;;4947116;28;20497;-91
2023/07/10 00:03:42;;;;;;;32.45;12.93;;;;;;;;;;4961246;28;20023;-92
2023/07/10 00:06:12;;;;;;;31.95;12.98;;;;;;;;;;4961165;28;20039;-92
2023/07/10 00:08:39;;;;;;;41.28;12.98;;;;;;;;;;4962306;28;20032;-92
2023/07/10 00:11:27;;;;;;;37.78;12.88;;;;;;;;;;4944752;28;20387;-92
2023/07/10 00:13:54;;;;;;;39.90;12.73;;;;;;;;;;4917584;28;20047;-92
2023/07/10 00:16:21;;;;;;;36.40;13.38;;;;;;;;;;4947567;28;20122;-92
2023/07/10 00:18:51;;;;;;;31.75;12.10;;;;;;;;;;4967010;28;20123;-91
2023/07/10 00:21:18;;;;;;;30.70;12.68;;;;;;;;;;4959577;28;20119;-91
2023/07/10 00:23:50;;;;;;;37.15;12.60;;;;;;;;;;4946416;28;20664;-92
2023/07/10 00:26:27;;;;;;;33.30;13.65;;;;;;;;;;4944780;28;20028;-92
2023/07/10 00:28:55;;;;;;;28.67;12.88;;;;;;;;;;4951142;28;20039;-92
2023/07/10 00:31:24;;;;;;;32.97;13.60;;;;;;;;;;4967252;28;20165;-91
2023/07/10 00:33:55;;;;;;;32.47;13.13;;;;;;;;;;4933363;28;20134;-92
2023/07/10 00:36:38;;;;;;;37.60;13.75;;;;;;;;;;4954590;28;20045;-92
2023/07/10 00:39:21;;;;;;;30.10;12.43;;;;;;;;;;4949000;28;20058;-91
2023/07/10 00:41:54;;;;;;;29.70;12.88;;;;;;;;;;4966402;28;20221;-91
2023/07/10 00:44:23;;;;;;;28.15;13.15;;;;;;;;;;4954155;28;20031;-92
2023/07/10 00:46:53;;;;;;;29.88;14.18;;;;;;;;;;4971202;28;20530;-91
2023/07/10 00:49:36;;;;;;;39.50;15.15;;;;;;;;;;4968518;28;20311;-91
2023/07/10 00:52:24;;;;;;;30.88;14.18;;;;;;;;;;4959377;28;20356;-92
2023/07/10 00:54:52;;;;;;;34.58;15.80;;;;;;;;;;4965038;28;20311;-92
2023/07/10 00:57:21;;;;;;;47.08;18.77;;;;;;;;;;4953079;28;20509;-93
2023/07/10 01:00:00;;;;;;;46.90;19.08;;;;;;;;;;4972646;28;20066;-93
2023/07/10 01:02:26;;;;;;;42.15;18.08;;;;;;;;;;4954162;28;20066;-93
2023/07/10 01:04:56;;;;;;;47.22;19.67;;;;;;;;;;4941810;28;20068;-93
2023/07/10 01:07:24;;;;;;;58.60;21.05;;;;;;;;;;4955788;28;20541;-92
2023/07/10 01:09:52;;;;;;;59.97;21.92;;;;;;;;;;4958233;28;20046;-93
2023/07/10 01:12:19;;;;;;;69.22;22.27;;;;;;;;;;4967486;28;20116;-93
2023/07/10 01:14:47;;;;;;;67.10;22.23;;;;;;;;;;4939701;28;20260;-93
2023/07/10 01:17:14;;;;;;;68.22;24.63;;;;;;;;;;4939413;28;20053;-93
2023/07/10 01:19:41;;;;;;;69.20;25.02;;;;;;;;;;4973803;28;20552;-93
2023/07/10 01:22:09;;;;;;;68.95;23.55;;;;;;;;;;4951864;28;20027;-93
2023/07/10 01:24:36;;;;;;;70.88;25.42;;;;;;;;;;4955988;28;20067;-93
2023/07/10 01:27:02;;;;;;;57.92;24.40;;;;;;;;;;4966098;28;20034;-94
2023/07/10 01:29:41;;;;;;;58.40;23.80;;;;;;;;;;4951687;28;20066;-94
2023/07/10 01:32:08;;;;;;;65.18;22.75;;;;;;;;;;4965898;28;20035;-92
2023/07/10 01:34:36;;;;;;;59.92;23.05;;;;;;;;;;4950653;28;20059;-93
2023/07/10 01:37:04;;;;;;;57.53;21.95;;;;;;;;;;4956034;28;20040;-93
2023/07/10 01:39:39;;;;;;;56.05;21.60;;;;;;;;;;4952164;28;20174;-93
2023/07/10 01:42:06;;;;;;;59.50;22.40;;;;;;;;;;4960692;28;20023;-93
2023/07/10 01:44:34;;;;;;;62.50;23.95;;;;;;;;;;4941100;28;20059;-92
2023/07/10 01:47:02;;;;;;;53.22;21.17;;;;;;;;;;4961601;28;20035;-93
2023/07/10 01:49:30;;;;;;;62.28;23.20;;;;;;;;;;4960002;28;20043;-92
2023/07/10 01:51:57;;;;;;;56.17;21.52;;;;;;;;;;4958651;28;20043;-93
2023/07/10 01:54:24;;;;;;;48.95;21.30;;;;;;;;;;4957679;28;20035;-91
2023/07/10 01:56:50;;;;;;;52.05;20.92;;;;;;;;;;4952525;28;20031;-90
2023/07/10 01:59:16;;;;;;;48.63;19.92;;;;;;;;;;4956729;28;20039;-91
2023/07/10 02:01:42;;;;;;;53.25;22.27;;;;;;;;;;4938856;28;20023;-92
2023/07/10 02:04:09;;;;;;;45.92;20.75;;;;;;;;;;4949051;28;20027;-91
2023/07/10 02:06:36;;;;;;;44.92;22.33;;;;;;;;;;4955036;28;20406;-90
2023/07/10 02:09:02;;;;;;;47.22;19.58;;;;;;;;;;4967092;28;20039;-91
2023/07/10 02:11:34;;;;;;;52.15;20.55;;;;;;;;;;4957352;28;20130;-91
2023/07/10 02:14:01;;;;;;;57.53;21.38;;;;;;;;;;4957278;28;20039;-92
2023/07/10 02:16:27;;;;;;;40.53;20.27;;;;;;;;;;4957964;28;20393;-92
2023/07/10 02:18:53;;;;;;;48.75;19.05;;;;;;;;;;4956506;28;20485;-91
2023/07/10 02:21:19;;;;;;;40.28;18.35;;;;;;;;;;4953965;28;20032;-94
2023/07/10 02:23:47;;;;;;;46.33;19.85;;;;;;;;;;4953195;28;20101;-95
2023/07/10 02:26:14;;;;;;;51.40;19.85;;;;;;;;;;4942106;28;20486;-90
2023/07/10 02:28:47;;;;;;;48.72;19.85;;;;;;;;;;4957113;28;20038;-91
2023/07/10 02:31:16;;;;;;;48.80;19.50;;;;;;;;;;4954714;28;20268;-93
2023/07/10 02:33:42;;;;;;;45.88;19.48;;;;;;;;;;4956216;28;20058;-92
2023/07/10 02:36:08;;;;;;;41.63;17.50;;;;;;;;;;4957080;28;20114;-92
2023/07/10 02:38:34;;;;;;;38.47;18.42;;;;;;;;;;4957224;28;20055;-92
2023/07/10 02:41:00;;;;;;;41.78;18.13;;;;;;;;;;4937540;28;20045;-91
2023/07/10 02:43:26;;;;;;;44.78;18.15;;;;;;;;;;4941494;28;20129;-92
2023/07/10 02:45:52;;;;;;;39.95;18.17;;;;;;;;;;4938344;28;20019;-92
2023/07/10 02:48:18;;;;;;;43.28;19.50;;;;;;;;;;4954627;28;20511;-92
2023/07/10 02:50:44;;;;;;;49.53;18.00;;;;;;;;;;4940663;28;20058;-91
2023/07/10 02:53:11;;;;;;;42.40;17.27;;;;;;;;;;4935746;28;20050;-92
2023/07/10 02:55:38;;;;;;;40.67;16.20;;;;;;;;;;4938524;28;20030;-93
2023/07/10 02:58:06;;;;;;;34.00;14.88;;;;;;;;;;4943137;28;20061;-93
2023/07/10 03:00:33;;;;;;;31.23;15.15;;;;;;;;;;4953490;28;20070;-92
2023/07/10 03:03:02;;;;;;;29.55;14.50;;;;;;;;;;4952546;28;20030;-92
2023/07/10 03:05:29;;;;;;;35.10;13.73;;;;;;;;;;4955319;28;20129;-91
2023/07/10 03:07:55;;;;;;;32.33;13.10;;;;;;;;;;4935338;28;20031;-91
2023/07/10 03:10:25;;;;;;;29.85;11.82;;;;;;;;;;4944203;28;20054;-94
2023/07/10 03:12:51;;;;;;;22.52;10.50;;;;;;;;;;4946983;28;20034;-93
2023/07/10 03:15:18;;;;;;;34.53;12.35;;;;;;;;;;4955473;28;20038;-94
2023/07/10 03:17:45;;;;;;;28.85;11.80;;;;;;;;;;4955359;28;20026;-93
2023/07/10 03:20:11;;;;;;;32.00;11.55;;;;;;;;;;4937233;28;20106;-90
2023/07/10 03:22:38;;;;;;;27.33;11.90;;;;;;;;;;4955998;28;20028;-90
2023/07/10 03:25:08;;;;;;;30.63;11.77;;;;;;;;;;4954584;28;20041;-90
2023/07/10 03:27:37;;;;;;;25.63;11.93;;;;;;;;;;4958509;28;20526;-91
2023/07/10 03:30:03;;;;;;;27.10;11.88;;;;;;;;;;4956603;28;20126;-90
2023/07/10 03:32:33;;;;;;;29.40;12.68;;;;;;;;;;4952962;28;20035;-90
2023/07/10 03:34:59;;;;;;;21.40;10.70;;;;;;;;;;4955512;28;20364;-90
2023/07/10 03:37:26;;;;;;;23.52;10.55;;;;;;;;;;4937511;28;20041;-91
2023/07/10 03:39:59;;;;;;;23.25;10.98;;;;;;;;;;4928629;28;20058;-92
2023/07/10 03:42:27;;;;;;;22.20;9.60;;;;;;;;;;4931354;29;20028;-90
2023/07/10 03:44:56;;;;;;;21.83;9.27;;;;;;;;;;4918777;29;20039;-91
2023/07/10 03:47:22;;;;;;;23.98;9.70;;;;;;;;;;4934371;28;20031;-91
2023/07/10 03:49:48;;;;;;;19.48;8.70;;;;;;;;;;4918280;29;20035;-90
2023/07/10 03:52:16;;;;;;;20.65;9.07;;;;;;;;;;4920440;29;20130;-91
2023/07/10 03:54:43;;;;;;;21.42;8.45;;;;;;;;;;4921653;29;20043;-91
2023/07/10 03:57:09;;;;;;;16.65;8.70;;;;;;;;;;4915003;28;20108;-90
2023/07/10 03:59:35;;;;;;;17.88;9.15;;;;;;;;;;4918898;29;20050;-91
2023/07/10 04:02:01;;;;;;;20.08;9.43;;;;;;;;;;4915581;28;20043;-91
2023/07/10 04:04:27;;;;;;;20.25;10.40;;;;;;;;;;4937652;28;20093;-91
2023/07/10 04:06:57;;;;;;;17.50;9.68;;;;;;;;;;4936390;28;20216;-93
2023/07/10 04:09:23;;;;;;;24.50;9.95;;;;;;;;;;4924381;29;20046;-93
2023/07/10 04:11:49;;;;;;;24.02;10.43;;;;;;;;;;4953939;28;20055;-92
2023/07/10 04:14:15;;;;;;;22.83;10.40;;;;;;;;;;5010374;23;20783;-90
2023/07/10 04:16:57;;;;;;;19.35;10.77;;;;;;;;;;4958393;28;20170;-89
2023/07/10 04:19:26;;;;;;;26.33;10.57;;;;;;;;;;4961982;28;20038;-94
2023/07/10 04:21:53;;;;;;;19.95;10.35;;;;;;;;;;4961030;28;20039;-93
2023/07/10 04:24:19;;;;;;;21.35;9.18;;;;;;;;;;4952476;28;20031;-94
2023/07/10 04:26:45;;;;;;;19.08;8.07;;;;;;;;;;4941402;28;20069;-93
2023/07/10 04:29:12;;;;;;;19.58;7.55;;;;;;;;;;4957468;28;20034;-94
2023/07/10 04:31:39;;;;;;;19.52;8.38;;;;;;;;;;4973295;28;20118;-92
2023/07/10 04:34:08;;;;;;;15.13;8.30;;;;;;;;;;4974322;28;20030;-93
2023/07/10 04:36:35;;;;;;;20.52;7.13;;;;;;;;;;4945339;28;20055;-93
2023/07/10 04:39:13;;;;;;;16.48;6.65;;;;;;;;;;4960123;28;20043;-92
2023/07/10 04:41:43;;;;;;;13.98;7.22;;;;;;;;;;4944320;28;20043;-93
2023/07/10 04:44:16;;;;;;;13.68;6.63;;;;;;;;;;4940975;28;20039;-92
2023/07/10 04:46:43;;;;;;;10.68;5.50;;;;;;;;;;4944035;28;20039;-93
2023/07/10 04:49:10;;;;;;;14.30;5.97;;;;;;;;;;4943965;28;20481;-91
2023/07/10 04:51:37;;;;;;;12.52;5.50;;;;;;;;;;4957844;28;20039;-91
2023/07/10 04:54:10;;;;;;;10.48;5.28;;;;;;;;;;4963251;28;20035;-92
2023/07/10 04:56:40;;;;;;;8.05;4.63;;;;;;;;;;4962217;28;20066;-91
2023/07/10 04:59:08;;;;;;;13.63;5.03;;;;;;;;;;4947753;28;20039;-92
2023/07/10 05:01:35;;;;;;;13.15;5.40;;;;;;;;;;4968526;28;20028;-91
2023/07/10 05:04:05;;;;;;;11.07;4.40;;;;;;;;;;4994110;28;20150;-92
2023/07/10 05:06:32;;;;;;;11.75;4.90;;;;;;;;;;4977094;28;20038;-92
2023/07/10 05:09:07;;;;;;;11.32;4.38;;;;;;;;;;4971876;28;20078;-91
2023/07/10 05:12:00;;;;;;;11.73;4.57;;;;;;;;;;4964782;28;20179;-90
2023/07/10 05:14:47;;;;;;;10.68;4.70;;;;;;;;;;4986989;28;20035;-89
2023/07/10 05:17:22;;;;;;;7.70;4.22;;;;;;;;;;4977578;28;20121;-89
2023/07/10 05:19:52;;;;;;;7.30;4.07;;;;;;;;;;4982329;28;20034;-88
2023/07/10 05:22:23;;;;;;;13.82;4.78;;;;;;;;;;4990274;28;20041;-88
2023/07/10 05:24:55;;;;;;;15.07;4.80;;;;;;;;;;4976697;28;20035;-88
2023/07/10 05:27:37;;;;;;;9.23;4.07;;;;;;;;;;4982386;28;20046;-89
2023/07/10 05:30:07;;;;;;;12.88;4.72;;;;;;;;;;4967583;28;20065;-92
2023/07/10 05:33:05;;;;;;;7.60;4.15;;;;;;;;;;4994086;28;20061;-89
2023/07/10 05:35:59;;;;;;;12.75;4.35;;;;;;;;;;4948637;28;20043;-88
2023/07/10 05:38:28;;;;;;;10.35;4.45;;;;;;;;;;4977908;28;20049;-89
2023/07/10 05:40:54;;;;;;;13.55;4.05;;;;;;;;;;4986400;28;20050;-90
2023/07/10 05:43:25;;;;;;;7.40;3.75;;;;;;;;;;4976581;28;20066;-90
2023/07/10 05:48:49;;;;;;;10.90;3.97;;;;;;;;;;4980750;28;20081;-88
2023/07/10 05:51:15;;;;;;;8.32;4.85;;;;;;;;;;4976360;28;20390;-89
2023/07/10 05:53:41;;;;;;;8.20;3.65;;;;;;;;;;4972231;28;20062;-89
2023/07/10 05:56:07;;;;;;;11.82;4.28;;;;;;;;;;4987296;28;20039;-89
2023/07/10 05:58:43;;;;;;;12.63;3.90;;;;;;;;;;4973255;28;20063;-89
2023/07/10 06:01:09;;;;;;;;;;;;;;;;;;4978158;28;20033;-89
2023/07/10 06:03:35;;;;;;;12.63;4.47;;;;;;;;;;4973494;28;19906;-89
2023/07/10 06:06:03;;;;;;;10.93;4.13;;;;;;;;;;4954916;28;20034;-88
2023/07/10 06:08:30;;;;;;;7.10;3.92;;;;;;;;;;4980204;28;20026;-88
2023/07/10 06:10:57;;;;;;;9.57;3.58;;;;;;;;;;4962478;28;20018;-89
2023/07/10 06:13:24;;;;;;;13.50;3.97;;;;;;;;;;4988828;28;20027;-89
2023/07/10 06:15:52;;;;;;;13.00;3.80;;;;;;;;;;4968500;28;20102;-88
2023/07/10 06:18:19;;;;;;;9.93;4.20;;;;;;;;;;4973402;28;20054;-88
2023/07/10 06:20:50;;;;;;;12.48;3.00;;;;;;;;;;4986275;28;20042;-88
2023/07/10 06:23:59;;;;;;;8.18;2.78;;;;;;;;;;4988893;28;20037;-88
2023/07/10 06:26:07;;;;;;;6.57;2.92;;;;;;;;;;4971213;28;20030;-88
2023/07/10 06:28:34;;;;;;;8.32;3.53;;;;;;;;;;4989317;28;20092;-88
2023/07/10 06:31:03;;;;;;;13.63;3.78;;;;;;;;;;4972195;28;20042;-88
2023/07/10 06:33:31;;;;;;;19.60;3.70;;;;;;;;;;4975890;28;20054;-88
2023/07/10 06:36:07;;;;;;;9.35;3.25;;;;;;;;;;4973573;28;20034;-88
2023/07/10 06:38:37;;;;;;;14.48;4.60;;;;;;;;;;4977169;28;20022;-89
2023/07/10 06:41:07;;;;;;;9.07;3.20;;;;;;;;;;4976753;28;20019;-88
2023/07/10 06:43:41;;;;;;;13.32;3.67;;;;;;;;;;4962142;28;20035;-88
2023/07/10 06:46:07;;;;;;;10.95;3.38;;;;;;;;;;4975196;28;20438;-88
2023/07/10 06:48:39;;;;;;;11.00;3.33;;;;;;;;;;4982860;28;20092;-89
2023/07/10 06:51:05;;;;;;;8.07;3.15;;;;;;;;;;4973985;28;20038;-89
2023/07/10 06:53:41;;;;;;;10.48;2.95;;;;;;;;;;4976486;28;20175;-89
2023/07/10 06:56:22;;;;;;;11.45;3.25;;;;;;;;;;4964406;28;20026;-90
2023/07/10 06:58:51;;;;;;;9.30;3.42;;;;;;;;;;4977513;28;20038;-89
2023/07/10 07:01:20;;;;;;;9.48;3.45;;;;;;;;;;4978658;28;20406;-89
2023/07/10 07:03:46;;;;;;;10.07;3.33;;;;;;;;;;4990881;28;20050;-90
2023/07/10 07:06:45;;;;;;;11.00;3.70;;;;;;;;;;4974312;28;20042;-89
2023/07/10 07:09:15;;;;;;;12.10;3.47;;;;;;;;;;4960310;28;20532;-90
2023/07/10 07:11:41;;;;;;;10.90;3.25;;;;;;;;;;4988111;28;20208;-90
2023/07/10 07:14:07;;;;;;;11.15;2.90;;;;;;;;;;4976569;28;20034;-89
2023/07/10 07:16:34;;;;;;;11.18;2.83;;;;;;;;;;4990945;28;20073;-90
2023/07/10 07:19:00;;;;;;;6.60;2.65;;;;;;;;;;4960242;28;20043;-88
2023/07/10 07:21:26;;;;;;;11.65;3.25;;;;;;;;;;4958319;28;20037;-90
2023/07/10 07:23:56;;;;;;;8.32;2.55;;;;;;;;;;4960227;28;20049;-88
2023/07/10 07:26:42;;;;;;;8.82;2.65;;;;;;;;;;4990126;28;20039;-89
2023/07/10 07:29:08;;;;;;;7.07;2.85;;;;;;;;;;4984418;28;20041;-90
2023/07/10 07:31:35;;;;;;;9.45;2.22;;;;;;;;;;4973440;28;20030;-90
2023/07/10 07:34:01;;;;;;;13.45;2.80;;;;;;;;;;4970212;28;20085;-89
2023/07/10 07:36:34;;;;;;;11.98;3.05;;;;;;;;;;4955379;28;20039;-90
2023/07/10 07:39:28;;;;;;;7.05;3.05;;;;;;;;;;4965322;28;20039;-89
2023/07/10 07:41:59;;;;;;;6.38;2.40;;;;;;;;;;4969114;28;20039;-90
2023/07/10 07:44:25;;;;;;;7.40;2.22;;;;;;;;;;4971524;28;20026;-90
2023/07/10 07:46:51;;;;;;;6.38;2.72;;;;;;;;;;4975525;28;20031;-90
2023/07/10 07:49:17;;;;;;;5.18;2.05;;;;;;;;;;4973447;28;20034;-89
2023/07/10 07:51:47;;;;;;;4.28;1.90;;;;;;;;;;4990251;28;20038;-88
2023/07/10 07:54:14;;;;;;;12.48;2.55;;;;;;;;;;4976857;28;20027;-91
2023/07/10 07:56:44;;;;;;;10.20;3.30;;;;;;;;;;4988038;28;20030;-91
2023/07/10 07:59:13;;;;;;;6.00;2.33;;;;;;;;;;4956032;28;20060;-89
2023/07/10 08:01:40;;;;;;;14.23;2.80;;;;;;;;;;4988327;28;20125;-91
2023/07/10 08:04:09;;;;;;;6.80;3.10;;;;;;;;;;4956171;28;20053;-90
2023/07/10 08:06:45;;;;;;;;;;;;;;;;;;;;;
2023/07/10 08:09:12;;;;;;;10.98;3.03;;;;;;;;;;4974239;28;20215;-90
2023/07/10 08:11:38;;;;;;;5.15;2.03;;;;;;;;;;4976684;28;20034;-90
2023/07/10 08:14:05;;;;;;;8.27;2.75;;;;;;;;;;4970566;28;20036;-89
2023/07/10 08:16:42;;;;;;;5.78;2.25;;;;;;;;;;4963670;28;20500;-90
2023/07/10 08:19:08;;;;;;;8.45;3.15;;;;;;;;;;4975277;28;20069;-89
2023/07/10 08:21:34;;;;;;;7.53;2.13;;;;;;;;;;4959799;28;20121;-89
2023/07/10 08:24:00;;;;;;;7.50;2.55;;;;;;;;;;4973717;28;20069;-90
2023/07/10 08:26:28;;;;;;;6.15;2.30;;;;;;;;;;4952806;28;20035;-90
2023/07/10 08:28:55;;;;;;;7.70;2.55;;;;;;;;;;4971791;28;20030;-90
2023/07/10 08:31:25;;;;;;;5.72;2.85;;;;;;;;;;4972727;28;20046;-90
2023/07/10 08:33:51;;;;;;;8.60;2.55;;;;;;;;;;4962045;28;20034;-90
2023/07/10 08:36:24;;;;;;;11.82;2.50;;;;;;;;;;4982703;28;20043;-91
2023/07/10 08:38:50;;;;;;;18.48;2.92;;;;;;;;;;4973427;28;20386;-89
2023/07/10 08:41:16;;;;;;;12.80;2.08;;;;;;;;;;4988282;28;20113;-90
2023/07/10 08:43:43;;;;;;;7.75;3.15;;;;;;;;;;4990314;28;20030;-89
2023/07/10 08:46:36;;;;;;;9.10;2.55;;;;;;;;;;4983733;28;20022;-90
2023/07/10 08:49:09;;;;;;;8.68;2.40;;;;;;;;;;4899570;29;20048;-89
2023/07/10 08:52:03;;;;;;;7.18;2.30;;;;;;;;;;4965633;28;20061;-90
2023/07/10 08:54:30;;;;;;;7.00;2.25;;;;;;;;;;4974219;28;20035;-90
2023/07/10 08:57:07;;;;;;;6.93;3.30;;;;;;;;;;4982458;28;20039;-90
2023/07/10 08:59:40;;;;;;;14.40;2.75;;;;;;;;;;4975880;28;20022;-89
2023/07/10 09:02:26;;;;;;;9.10;2.40;;;;;;;;;;4975702;28;20046;-89
2023/07/10 09:04:52;;;;;;;10.10;3.40;;;;;;;;;;4975940;28;20105;-89
2023/07/10 09:07:19;;;;;;;25.73;3.20;;;;;;;;;;4974684;28;20037;-90
2023/07/10 09:09:48;;;;;;;5.68;2.40;;;;;;;;;;4971541;28;20156;-90
2023/07/10 09:12:17;;;;;;;13.73;2.60;;;;;;;;;;4990743;28;20038;-89
2023/07/10 09:14:50;;;;;;;7.68;2.63;;;;;;;;;;4979912;28;20045;-89
2023/07/10 09:17:27;;;;;;;12.32;5.03;;;;;;;;;;4976975;28;20101;-89
2023/07/10 09:19:54;;;;;;;6.82;2.38;;;;;;;;;;4998996;28;20042;-89
2023/07/10 09:22:21;;;;;;;6.45;2.28;;;;;;;;;;4966271;28;20031;-90
2023/07/10 09:24:47;;;;;;;13.20;2.58;;;;;;;;;;4994016;28;20039;-90
2023/07/10 09:27:14;;;;;;;13.95;2.47;;;;;;;;;;4967261;28;20026;-90
2023/07/10 09:29:42;;;;;;;8.35;2.70;;;;;;;;;;4999679;28;20466;-89
2023/07/10 09:32:19;;;;;;;9.82;2.35;;;;;;;;;;4984165;28;20022;-89
2023/07/10 09:34:53;;;;;;;7.47;2.33;;;;;;;;;;4980246;28;20039;-88
2023/07/10 09:37:21;;;;;;;15.88;2.55;;;;;;;;;;4979528;28;20452;-91
2023/07/10 09:39:47;;;;;;;7.28;2.35;;;;;;;;;;4982855;28;20561;-88
2023/07/10 09:42:18;;;;;;;10.95;3.13;;;;;;;;;;4982244;28;20019;-89
2023/07/10 09:44:47;;;;;;;12.32;2.15;;;;;;;;;;4984093;28;20469;-89
2023/07/10 09:47:14;;;;;;;5.70;2.38;;;;;;;;;;4998220;28;20050;-88
2023/07/10 09:49:46;;;;;;;11.43;2.58;;;;;;;;;;5002442;28;20037;-89
2023/07/10 09:52:48;;;;;;;8.50;2.25;;;;;;;;;;4977810;28;20034;-89
2023/07/10 09:55:19;;;;;;;11.40;2.70;;;;;;;;;;4910556;29;20042;-90
2023/07/10 09:58:02;;;;;;;7.60;2.63;;;;;;;;;;4970840;28;20038;-89
2023/07/10 10:00:28;;;;;;;9.40;2.50;;;;;;;;;;4984149;28;20022;-89
2023/07/10 10:03:02;;;;;;;9.77;2.60;;;;;;;;;;4999390;28;20493;-90
2023/07/10 10:05:29;;;;;;;15.45;2.30;;;;;;;;;;4994368;28;20026;-90
2023/07/10 10:08:04;;;;;;;11.23;2.50;;;;;;;;;;4985187;28;20060;-89
2023/07/10 10:10:37;;;;;;;12.33;2.83;;;;;;;;;;4979706;28;20038;-91
2023/07/10 10:13:17;;;;;;;11.88;2.78;;;;;;;;;;4989492;28;20653;-90
2023/07/10 10:15:52;;;;;;;6.40;2.20;;;;;;;;;;4979533;28;20093;-90
2023/07/10 10:18:36;;;;;;;4.85;1.83;;;;;;;;;;4981628;28;20401;-90
2023/07/10 10:21:04;;;;;;;15.18;3.42;;;;;;;;;;4982939;28;20044;-90
2023/07/10 10:23:38;;;;;;;12.75;2.75;;;;;;;;;;4975524;28;20051;-89
2023/07/10 10:26:23;;;;;;;12.27;2.92;;;;;;;;;;4979279;28;20030;-89
2023/07/10 10:29:08;;;;;;;11.80;3.50;;;;;;;;;;4991541;28;20161;-90
2023/07/10 10:31:41;;;;;;;14.55;2.60;;;;;;;;;;4981008;28;20064;-89
2023/07/10 10:34:16;;;;;;;9.02;3.78;;;;;;;;;;4960240;28;20368;-89
2023/07/10 10:37:03;;;;;;;12.02;2.70;;;;;;;;;;4981375;28;20067;-89
2023/07/10 10:39:39;;;;;;;11.32;2.72;;;;;;;;;;4974831;28;20134;-89
2023/07/10 10:42:21;;;;;;;8.48;3.08;;;;;;;;;;4984771;28;20026;-90
2023/07/10 10:44:50;;;;;;;9.52;2.80;;;;;;;;;;4979226;28;20055;-89
2023/07/10 10:47:35;;;;;;;7.82;2.35;;;;;;;;;;4978722;28;20062;-90
2023/07/10 10:50:20;;;;;;;13.50;2.70;;;;;;;;;;4991745;28;20034;-90
2023/07/10 10:52:46;;;;;;;6.40;2.40;;;;;;;;;;4996264;28;20036;-88
2023/07/10 10:55:20;;;;;;;14.45;3.22;;;;;;;;;;4992771;28;20061;-91
2023/07/10 10:57:53;;;;;;;9.88;2.60;;;;;;;;;;4976293;28;20037;-89
2023/07/10 11:00:38;;;;;;;6.25;1.98;;;;;;;;;;4977017;28;20089;-88
2023/07/10 11:03:10;;;;;;;8.13;2.50;;;;;;;;;;4977940;28;20038;-89
2023/07/10 11:05:42;;;;;;;9.20;2.15;;;;;;;;;;4989756;28;20391;-88
2023/07/10 11:08:14;;;;;;;6.82;2.30;;;;;;;;;;4993113;28;20022;-88
2023/07/10 11:10:42;;;;;;;11.10;2.50;;;;;;;;;;4988618;28;20026;-89
2023/07/10 11:13:19;;;;;;;6.20;2.13;;;;;;;;;;4977892;28;20034;-88
2023/07/10 11:15:45;;;;;;;6.80;2.20;;;;;;;;;;4977837;28;20131;-88
2023/07/10 11:18:14;;;;;;;13.20;2.83;;;;;;;;;;4957751;28;20248;-89
2023/07/10 11:20:44;;;;;;;7.63;2.40;;;;;;;;;;4979250;28;20019;-89
2023/07/10 11:23:29;;;;;;;11.43;2.95;;;;;;;;;;4957046;28;20102;-88
2023/07/10 11:26:03;;;;;;;16.47;2.90;;;;;;;;;;4982331;28;20019;-88
2023/07/10 11:28:34;;;;;;;5.43;2.22;;;;;;;;;;4979142;28;20808;-90
2023/07/10 11:31:36;;;;;;;9.85;2.40;;;;;;;;;;4981278;28;20140;-89
2023/07/10 11:34:07;;;;;;;11.43;2.70;;;;;;;;;;4891196;29;20071;-89
2023/07/10 11:36:34;;;;;;;5.88;1.85;;;;;;;;;;4952086;28;20046;-90
2023/07/10 11:39:10;;;;;;;6.28;2.10;;;;;;;;;;4981501;28;20050;-89
2023/07/10 11:41:38;;;;;;;10.82;2.30;;;;;;;;;;4961629;28;20467;-90
2023/07/10 11:44:23;;;;;;;11.07;1.63;;;;;;;;;;4979176;28;20029;-90
2023/07/10 11:46:59;;;;;;;11.82;2.60;;;;;;;;;;4979271;28;20030;-89
2023/07/10 11:49:26;;;;;;;8.65;2.60;;;;;;;;;;4944467;28;20042;-89
2023/07/10 11:52:11;;;;;;;10.95;2.40;;;;;;;;;;4954097;28;20034;-90
2023/07/10 11:54:41;;;;;;;7.80;1.88;;;;;;;;;;4954791;28;20486;-89
2023/07/10 11:57:07;;;;;;;9.13;2.47;;;;;;;;;;4968116;28;20051;-89
2023/07/10 11:59:39;;;;;;;6.85;2.53;;;;;;;;;;4946836;28;20391;-89
2023/07/10 12:02:23;;;;;;;10.93;2.20;;;;;;;;;;4970318;28;20035;-89
2023/07/10 12:04:50;;;;;;;8.32;2.22;;;;;;;;;;4971918;28;20419;-90
2023/07/10 12:07:29;;;;;;;3.95;1.63;;;;;;;;;;4941398;28;20035;-88
2023/07/10 12:10:00;;;;;;;6.47;1.98;;;;;;;;;;4960499;28;20034;-90
2023/07/10 12:15:15;;;;;;;5.22;1.70;;;;;;;;;;4979118;28;20303;-89
2023/07/10 12:17:42;;;;;;;4.68;1.30;;;;;;;;;;4972915;28;20039;-88
2023/07/10 12:20:29;;;;;;;4.63;1.75;;;;;;;;;;4972551;28;20037;-88
2023/07/10 12:22:56;;;;;;;7.10;2.58;;;;;;;;;;4980427;28;20038;-88
2023/07/10 12:25:23;;;;;;;8.63;2.35;;;;;;;;;;4994539;28;20034;-90
2023/07/10 12:28:10;;;;;;;;;;;;;;;;;;;;;
2023/07/10 12:30:43;;;;;;;9.10;2.40;;;;;;;;;;4979340;28;20126;-89
2023/07/10 12:33:42;;;;;;;6.95;1.55;;;;;;;;;;4973444;28;20486;-90
2023/07/10 12:36:41;;;;;;;;;;;;;;;;;;;;;
2023/07/10 12:39:47;;;;;;;5.97;1.80;;;;;;;;;;4942481;29;20109;-90
2023/07/10 12:42:52;;;;;;;11.82;2.15;;;;;;;;;;4883653;29;20032;-90
2023/07/10 12:45:32;;;;;;;6.80;1.98;;;;;;;;;;4897664;29;20051;-90
2023/07/10 12:48:26;;;;;;;3.22;1.55;;;;;;;;;;4934289;29;20067;-88
2023/07/10 12:51:24;;;;;;;;;;;;;;;;;;;;;
2023/07/10 12:54:24;;;;;;;;;;;;;;;;;;;;;
2023/07/10 13:00:32;;;;;;;3.17;1.55;;;;;;;;;;4895556;29;20047;-90
2023/07/10 13:03:16;;;;;;;;;;;;;;;;;;;;;
2023/07/10 13:06:25;;;;;;;6.28;1.60;;;;;;;;;;4915599;29;20049;-91
2023/07/10 13:08:59;;;;;;;6.90;1.33;;;;;;;;;;4877979;29;20049;-91
2023/07/10 13:14:29;;;;;;;8.27;2.13;;;;;;;;;;4937797;28;20075;-89
2023/07/10 13:17:25;;;;;;;;;;;;;;;;;;;;;
2023/07/10 13:20:14;;;;;;;20.60;1.60;;;;;;;;;;4971735;28;20061;-89
2023/07/10 13:23:20;;;;;;;7.15;1.80;;;;;;;;;;4959619;28;20034;-89
2023/07/10 13:26:02;;;;;;;4.45;1.20;;;;;;;;;;4975741;28;20066;-89
2023/07/10 13:31:35;;;;;;;5.85;1.63;;;;;;;;;;4986669;28;20070;-89
2023/07/10 13:34:02;;;;;;;8.00;1.70;;;;;;;;;;4964648;28;20034;-88
2023/07/10 13:36:30;;;;;;;4.47;1.67;;;;;;;;;;4996286;28;20034;-89
2023/07/10 13:38:57;;;;;;;4.90;1.38;;;;;;;;;;4978901;28;20061;-90
2023/07/10 13:41:28;;;;;;;2.97;0.70;;;;;;;;;;4960551;28;20065;-91
2023/07/10 13:43:54;;;;;;;4.35;1.38;;;;;;;;;;4989012;28;20022;-91
2023/07/10 13:46:23;;;;;;;3.70;1.15;;;;;;;;;;4994813;28;20042;-91
2023/07/10 13:48:50;;;;;;;2.58;1.00;;;;;;;;;;4989211;28;20093;-90
2023/07/10 13:51:17;;;;;;;4.53;1.58;;;;;;;;;;4977882;28;20104;-88
2023/07/10 13:53:56;;;;;;;4.65;1.20;;;;;;;;;;4978337;28;20031;-89
2023/07/10 13:56:45;;;;;;;7.47;1.30;;;;;;;;;;4983480;28;20056;-90
2023/07/10 13:59:20;;;;;;;6.30;1.30;;;;;;;;;;4981137;28;20046;-89
2023/07/10 14:01:47;;;;;;;3.05;1.35;;;;;;;;;;4991181;28;20022;-90
2023/07/10 14:04:28;;;;;;;2.72;1.08;;;;;;;;;;4995850;28;20081;-89
2023/07/10 14:07:05;;;;;;;7.72;1.83;;;;;;;;;;4978961;28;20045;-90
2023/07/10 14:09:32;;;;;;;;;;;;;;;;;;4996014;28;20059;-90
2023/07/10 14:12:20;;;;;;;4.38;1.42;;;;;;;;;;4999801;28;19894;-91
2023/07/10 14:15:13;;;;;;;4.30;1.27;;;;;;;;;;4994902;28;20098;-90
2023/07/10 14:17:41;;;;;;;8.05;1.40;;;;;;;;;;4973540;28;20076;-89
2023/07/10 14:20:15;;;;;;;3.10;1.15;;;;;;;;;;4950300;28;20039;-90
2023/07/10 14:22:54;;;;;;;;;;;;;;;;;;;;;
2023/07/10 14:25:22;;;;;;;8.90;1.65;;;;;;;;;;4964352;28;20530;-90
2023/07/10 14:27:48;;;;;;;4.35;1.58;;;;;;;;;;4945137;28;20035;-90
2023/07/10 14:30:20;;;;;;;4.97;1.52;;;;;;;;;;4960592;28;20547;-90
2023/07/10 14:32:50;;;;;;;2.60;1.30;;;;;;;;;;4972367;28;20045;-90
2023/07/10 14:35:22;;;;;;;6.30;1.75;;;;;;;;;;4972884;28;20073;-90
2023/07/10 14:38:04;;;;;;;6.90;1.40;;;;;;;;;;4971730;28;20106;-89
2023/07/10 14:40:30;;;;;;;8.68;1.80;;;;;;;;;;4959070;28;20030;-89
2023/07/10 14:42:56;;;;;;;6.93;1.48;;;;;;;;;;4958552;28;20513;-89
2023/07/10 14:45:23;;;;;;;4.88;1.20;;;;;;;;;;4978232;28;20031;-91
2023/07/10 14:47:49;;;;;;;2.05;1.02;;;;;;;;;;4953900;28;20309;-90
2023/07/10 14:50:19;;;;;;;8.77;1.77;;;;;;;;;;4953905;28;20043;-89
2023/07/10 14:52:46;;;;;;;6.05;1.95;;;;;;;;;;4954108;28;20031;-89
2023/07/10 14:55:17;;;;;;;10.38;1.25;;;;;;;;;;4957092;28;20031;-88
2023/07/10 14:57:43;;;;;;;4.53;1.00;;;;;;;;;;4970599;28;20046;-90
2023/07/10 15:00:13;;;;;;;4.20;1.23;;;;;;;;;;4956106;28;20053;-90
2023/07/10 15:02:45;;;;;;;6.95;1.55;;;;;;;;;;4975708;28;20027;-89
2023/07/10 15:05:11;;;;;;;12.35;1.60;;;;;;;;;;4970952;28;20649;-89
2023/07/10 15:07:38;;;;;;;5.10;1.20;;;;;;;;;;4972085;28;20023;-89
2023/07/10 15:10:17;;;;;;;6.55;1.50;;;;;;;;;;4968990;28;20032;-89
2023/07/10 15:12:44;;;;;;;3.33;1.20;;;;;;;;;;4948296;28;20456;-89
2023/07/10 15:15:15;;;;;;;4.60;1.48;;;;;;;;;;4952008;28;20046;-89
2023/07/10 15:17:42;;;;;;;5.90;1.20;;;;;;;;;;4955747;28;20166;-89
2023/07/10 15:20:19;;;;;;;3.63;1.17;;;;;;;;;;4956693;28;20047;-88
2023/07/10 15:22:45;;;;;;;2.38;1.30;;;;;;;;;;4975356;28;20035;-89
2023/07/10 15:25:23;;;;;;;4.72;1.52;;;;;;;;;;4982736;28;20093;-88